createdAt,value
2023-12-23T07:58:50.047Z,17.08
2023-12-23T08:00:53.083Z,14.15
2023-12-23T08:02:56.013Z,18.10
2023-12-23T08:04:59.613Z,18.20
2023-12-23T08:07:02.591Z,16.52
2023-12-23T08:09:05.696Z,80.47
2023-12-23T08:11:08.792Z,16.40
2023-12-23T08:13:11.608Z,16.30
2023-12-23T08:15:14.501Z,42.42
2023-12-23T08:17:17.328Z,33.70
2023-12-23T08:19:22.196Z,12.60
2023-12-23T08:21:25.468Z,18.52
2023-12-23T08:23:28.400Z,35.80
2023-12-23T08:25:31.195Z,19.10
2023-12-23T08:27:34.096Z,23.30
2023-12-23T08:29:37.013Z,14.75
2023-12-23T08:31:46.546Z,16.13
2023-12-23T08:33:50.023Z,14.00
2023-12-23T08:35:53.019Z,17.50
2023-12-23T08:37:55.826Z,20.65
2023-12-23T08:39:58.682Z,25.63
2023-12-23T08:42:01.474Z,15.32
2023-12-23T08:44:04.971Z,28.60
2023-12-23T08:46:07.841Z,17.55
2023-12-23T08:48:10.693Z,23.67
2023-12-23T08:50:13.613Z,22.17
2023-12-23T08:52:16.577Z,33.20
2023-12-23T08:54:19.367Z,46.35
2023-12-23T08:56:22.150Z,198.20
2023-12-23T08:58:26.544Z,127.57
2023-12-23T09:00:29.530Z,204.65
2023-12-23T09:02:32.586Z,121.78
2023-12-23T09:04:35.659Z,181.75
2023-12-23T09:06:38.534Z,105.38
2023-12-23T09:08:41.432Z,200.80
2023-12-23T09:10:44.357Z,189.35
2023-12-23T09:12:47.333Z,287.42
2023-12-23T09:14:53.077Z,318.05
2023-12-23T09:16:55.888Z,129.00
2023-12-23T09:18:58.770Z,176.82
2023-12-23T09:21:01.789Z,82.03
2023-12-23T09:23:04.679Z,87.43
2023-12-23T09:25:07.746Z,77.85
2023-12-23T09:27:10.500Z,20.40
2023-12-23T09:29:13.410Z,32.40
2023-12-23T09:31:16.264Z,23.60
2023-12-23T09:33:19.108Z,26.45
2023-12-23T09:35:22.071Z,45.42
2023-12-23T09:37:24.974Z,15.15
2023-12-23T09:39:27.818Z,12.57
2023-12-23T09:41:30.805Z,12.30
2023-12-23T09:43:34.333Z,14.57
2023-12-23T09:45:38.933Z,14.30
2023-12-23T09:47:41.937Z,20.73
2023-12-23T09:49:44.935Z,27.40
2023-12-23T09:51:48.899Z,11.18
2023-12-23T09:53:57.446Z,16.70
2023-12-23T09:56:00.348Z,17.08
2023-12-23T09:58:03.368Z,13.02
2023-12-23T10:00:06.971Z,15.05
2023-12-23T10:02:09.936Z,9.77
2023-12-23T10:04:12.976Z,23.73
2023-12-23T10:06:20.036Z,11.70
2023-12-23T10:08:24.852Z,12.05
2023-12-23T10:10:27.899Z,11.90
2023-12-23T10:12:30.686Z,13.95
2023-12-23T10:14:33.585Z,35.40
2023-12-23T10:16:38.676Z,18.10
2023-12-23T10:18:43.250Z,14.32
2023-12-23T10:20:46.877Z,14.73
2023-12-23T10:22:50.488Z,15.88
2023-12-23T10:24:53.469Z,11.55
2023-12-23T10:26:57.972Z,31.65
2023-12-23T10:29:05.669Z,197.45
2023-12-23T10:31:13.044Z,11.40
2023-12-23T10:33:18.005Z,14.23
2023-12-23T10:35:21.696Z,13.43
2023-12-23T10:37:26.347Z,13.60
2023-12-23T10:39:38.715Z,13.40
2023-12-23T10:41:51.667Z,15.20
2023-12-23T10:43:56.040Z,17.25
2023-12-23T10:46:00.631Z,23.85
2023-12-23T10:48:05.727Z,61.80
2023-12-23T10:50:10.817Z,16.02
2023-12-23T10:52:15.533Z,18.92
2023-12-23T10:54:19.768Z,33.42
2023-12-23T10:56:24.007Z,24.55
2023-12-23T10:58:28.370Z,17.88
2023-12-23T11:00:31.763Z,19.83
2023-12-23T11:02:36.600Z,26.92
2023-12-23T11:04:42.981Z,17.63
2023-12-23T11:06:48.107Z,32.63
2023-12-23T11:08:52.851Z,22.85
2023-12-23T11:10:56.175Z,28.75
2023-12-23T11:13:01.313Z,29.95
2023-12-23T11:15:05.706Z,28.85
2023-12-23T11:17:31.986Z,30.85
2023-12-23T11:19:59.297Z,31.73
2023-12-23T11:22:30.190Z,61.55
2023-12-23T11:24:52.575Z,34.47
2023-12-23T11:26:55.631Z,36.33
2023-12-23T11:28:58.514Z,34.78
2023-12-23T11:31:02.554Z,36.00
2023-12-23T11:33:05.878Z,37.72
2023-12-23T11:35:13.919Z,33.42
2023-12-23T11:37:17.192Z,31.85
2023-12-23T11:39:19.995Z,35.97
2023-12-23T11:41:23.395Z,34.97
2023-12-23T11:43:26.377Z,34.22
2023-12-23T11:45:29.722Z,33.08
2023-12-23T11:47:32.602Z,37.63
2023-12-23T11:49:35.842Z,36.65
2023-12-23T11:51:40.432Z,49.65
2023-12-23T11:53:44.832Z,34.40
2023-12-23T11:55:48.761Z,33.85
2023-12-23T11:57:51.765Z,30.42
2023-12-23T11:59:56.746Z,32.50
2023-12-23T12:01:59.529Z,27.38
2023-12-23T12:04:02.622Z,29.27
2023-12-23T12:06:05.771Z,32.90
2023-12-23T12:08:08.686Z,29.48
2023-12-23T12:10:15.184Z,33.63
2023-12-23T12:12:18.783Z,36.72
2023-12-23T12:14:21.555Z,32.45
2023-12-23T12:16:24.475Z,32.65
2023-12-23T12:18:27.440Z,32.35
2023-12-23T12:20:30.489Z,27.77
2023-12-23T12:22:33.388Z,41.00
2023-12-23T12:24:36.095Z,33.20
2023-12-23T12:26:38.997Z,34.78
2023-12-23T12:28:43.671Z,31.63
2023-12-23T12:30:48.603Z,35.85
2023-12-23T12:32:53.533Z,32.40
2023-12-23T12:35:07.855Z,40.95
2023-12-23T12:37:11.868Z,33.25
2023-12-23T12:39:21.297Z,31.63
2023-12-23T12:41:29.543Z,38.40
2023-12-23T12:43:36.917Z,42.67
2023-12-23T12:45:43.390Z,36.08
2023-12-23T12:47:51.171Z,37.42
2023-12-23T12:50:07.770Z,33.13
2023-12-23T12:52:13.290Z,27.98
2023-12-23T12:54:16.882Z,32.28
2023-12-23T12:56:23.163Z,33.95
2023-12-23T12:58:26.380Z,25.25
2023-12-23T13:00:29.181Z,26.77
2023-12-23T13:02:32.237Z,28.00
2023-12-23T13:04:37.405Z,28.25
2023-12-23T13:06:41.641Z,26.27
2023-12-23T13:08:44.539Z,21.20
2023-12-23T13:10:48.369Z,21.35
2023-12-23T13:12:51.718Z,27.95
2023-12-23T13:14:54.740Z,21.27
2023-12-23T13:16:57.625Z,21.70
2023-12-23T13:19:01.493Z,27.02
2023-12-23T13:21:04.540Z,24.17
2023-12-23T13:23:07.318Z,22.48
2023-12-23T13:25:11.095Z,19.83
2023-12-23T13:27:14.131Z,18.05
2023-12-23T13:29:18.287Z,16.00
2023-12-23T13:31:22.144Z,22.85
2023-12-23T13:33:25.145Z,17.77
2023-12-23T13:35:28.964Z,19.00
2023-12-23T13:37:32.632Z,17.95
2023-12-23T13:39:35.651Z,17.65
2023-12-23T13:41:38.484Z,14.18
2023-12-23T13:43:41.354Z,16.75
2023-12-23T13:45:44.428Z,17.52
2023-12-23T13:47:47.711Z,13.18
2023-12-23T13:49:51.237Z,15.40
2023-12-23T13:51:54.193Z,17.60
2023-12-23T13:53:57.046Z,14.55
2023-12-23T13:55:59.960Z,17.23
2023-12-23T13:58:03.228Z,17.30
2023-12-23T14:00:06.703Z,14.15
2023-12-23T14:02:09.938Z,16.60
2023-12-23T14:04:12.799Z,16.67
2023-12-23T14:06:15.722Z,12.63
2023-12-23T14:08:18.543Z,14.88
2023-12-23T14:10:21.375Z,14.07
2023-12-23T14:12:24.967Z,15.70
2023-12-23T14:14:27.831Z,14.23
2023-12-23T14:16:32.178Z,15.10
2023-12-23T14:18:35.094Z,16.25
2023-12-23T14:20:38.072Z,12.68
2023-12-23T14:22:40.895Z,18.20
2023-12-23T14:24:43.966Z,12.88
2023-12-23T14:26:46.794Z,12.00
2023-12-23T14:28:49.700Z,12.77
2023-12-23T14:30:52.764Z,12.40
2023-12-23T14:32:55.690Z,17.65
2023-12-23T14:34:58.787Z,15.05
2023-12-23T14:37:01.617Z,13.63
2023-12-23T14:39:04.407Z,13.07
2023-12-23T14:41:07.389Z,18.77
2023-12-23T14:43:10.134Z,13.15
2023-12-23T14:45:13.229Z,10.80
2023-12-23T14:47:16.321Z,12.07
2023-12-23T14:49:19.281Z,12.68
2023-12-23T14:51:24.647Z,12.95
2023-12-23T14:53:29.369Z,10.52
2023-12-23T14:55:32.177Z,13.23
2023-12-23T14:57:35.040Z,14.77
2023-12-23T14:59:37.923Z,13.80
2023-12-23T15:01:40.750Z,18.20
2023-12-23T15:03:43.662Z,13.05
2023-12-23T15:05:46.557Z,14.52
2023-12-23T15:07:49.445Z,16.80
2023-12-23T15:09:52.608Z,13.43
2023-12-23T15:11:55.464Z,13.30
2023-12-23T15:13:58.300Z,14.45
2023-12-23T15:16:01.184Z,16.33
2023-12-23T15:18:04.478Z,11.88
2023-12-23T15:20:08.230Z,17.83
2023-12-23T15:22:11.150Z,12.52
2023-12-23T15:24:13.938Z,11.07
2023-12-23T15:26:17.056Z,14.32
2023-12-23T15:28:20.053Z,15.93
2023-12-23T15:30:22.793Z,14.82
2023-12-23T15:32:25.911Z,13.68
2023-12-23T15:34:28.954Z,10.48
2023-12-23T15:36:31.996Z,11.65
2023-12-23T15:38:35.117Z,12.73
2023-12-23T15:40:38.503Z,14.35
2023-12-23T15:42:41.390Z,12.02
2023-12-23T15:44:44.494Z,16.08
2023-12-23T15:46:47.499Z,21.38
2023-12-23T15:48:50.406Z,14.85
2023-12-23T15:50:53.171Z,13.02
2023-12-23T15:52:56.075Z,16.33
2023-12-23T15:54:59.195Z,13.80
2023-12-23T15:57:05.729Z,13.93
2023-12-23T15:59:08.598Z,13.63
2023-12-23T16:01:13.210Z,11.30
2023-12-23T16:03:16.090Z,12.00
2023-12-23T16:05:19.041Z,11.55
2023-12-23T16:07:21.968Z,9.80
2023-12-23T16:09:24.694Z,13.70
2023-12-23T16:11:27.527Z,10.18
2023-12-23T16:13:30.616Z,11.82
2023-12-23T16:15:34.025Z,10.98
2023-12-23T16:17:37.001Z,11.60
2023-12-23T16:19:39.925Z,12.88
2023-12-23T16:21:43.095Z,9.30
2023-12-23T16:23:47.144Z,25.13
2023-12-23T16:25:50.015Z,12.32
2023-12-23T16:27:52.879Z,13.52
2023-12-23T16:29:55.619Z,11.50
2023-12-23T16:32:01.431Z,13.80
2023-12-23T16:34:06.006Z,13.35
2023-12-23T16:36:11.796Z,17.15
2023-12-23T16:38:14.691Z,11.00
2023-12-23T16:40:17.575Z,10.70
2023-12-23T16:42:22.150Z,10.40
2023-12-23T16:44:25.139Z,21.40
2023-12-23T16:46:28.842Z,8.88
2023-12-23T16:48:31.840Z,28.45
2023-12-23T16:50:35.307Z,16.17
2023-12-23T16:52:38.553Z,13.55
2023-12-23T16:54:41.249Z,13.45
2023-12-23T16:56:44.118Z,8.27
2023-12-23T16:58:48.519Z,11.63
2023-12-23T17:00:52.048Z,15.38
2023-12-23T17:02:55.287Z,11.02
2023-12-23T17:04:58.450Z,6.90
2023-12-23T17:07:01.309Z,11.32
2023-12-23T17:09:05.817Z,12.05
2023-12-23T17:11:08.624Z,11.63
2023-12-23T17:13:11.501Z,11.85
2023-12-23T17:15:14.257Z,12.15
2023-12-23T17:17:17.388Z,13.98
2023-12-23T17:19:20.368Z,11.27
2023-12-23T17:21:23.269Z,14.93
2023-12-23T17:23:27.370Z,10.02
2023-12-23T17:25:30.144Z,8.80
2023-12-23T17:27:32.857Z,12.02
2023-12-23T17:29:36.213Z,12.07
2023-12-23T17:31:38.995Z,9.25
2023-12-23T17:33:42.071Z,10.32
2023-12-23T17:35:45.055Z,10.52
2023-12-23T17:37:49.586Z,14.43
2023-12-23T17:39:53.025Z,12.52
2023-12-23T17:41:55.892Z,12.52
2023-12-23T17:43:58.607Z,11.45
2023-12-23T17:46:01.362Z,14.05
2023-12-23T17:48:05.323Z,11.50
2023-12-23T17:50:09.804Z,14.15
2023-12-23T17:52:12.817Z,10.55
2023-12-23T17:54:16.072Z,9.00
2023-12-23T17:56:21.834Z,13.60
2023-12-23T17:58:24.821Z,12.63
2023-12-23T18:00:27.772Z,7.75
2023-12-23T18:02:30.581Z,8.77
2023-12-23T18:04:33.582Z,14.80
2023-12-23T18:06:36.427Z,13.88
2023-12-23T18:08:39.222Z,14.02
2023-12-23T18:10:42.096Z,9.55
2023-12-23T18:12:44.928Z,10.75
2023-12-23T18:14:47.667Z,16.90
2023-12-23T18:16:50.391Z,8.85
2023-12-23T18:18:53.357Z,13.35
2023-12-23T18:20:56.107Z,12.90
2023-12-23T18:22:59.058Z,10.35
2023-12-23T18:25:01.903Z,14.27
2023-12-23T18:27:06.767Z,10.55
2023-12-23T18:29:09.557Z,9.98
2023-12-23T18:31:12.393Z,13.15
2023-12-23T18:33:17.126Z,10.75
2023-12-23T18:35:20.281Z,13.40
2023-12-23T18:37:25.100Z,13.23
2023-12-23T18:39:32.067Z,11.55
2023-12-23T18:41:36.314Z,14.07
2023-12-23T18:43:39.776Z,10.15
2023-12-23T18:45:42.578Z,12.52
2023-12-23T18:47:47.977Z,9.95
2023-12-23T18:49:51.153Z,10.27
2023-12-23T18:51:54.446Z,11.30
2023-12-23T18:53:57.500Z,11.68
2023-12-23T18:56:00.495Z,10.45
2023-12-23T18:58:03.724Z,10.88
2023-12-23T19:00:07.617Z,9.52
2023-12-23T19:02:12.271Z,15.07
2023-12-23T19:04:15.279Z,12.48
2023-12-23T19:06:18.159Z,15.05
2023-12-23T19:08:21.059Z,29.77
2023-12-23T19:10:24.478Z,11.57
2023-12-23T19:12:27.504Z,16.92
2023-12-23T19:14:30.398Z,14.75
2023-12-23T19:16:34.080Z,13.18
2023-12-23T19:18:37.293Z,16.88
2023-12-23T19:20:40.389Z,16.52
2023-12-23T19:22:44.833Z,18.85
2023-12-23T19:24:47.537Z,16.77
2023-12-23T19:26:51.631Z,19.80
2023-12-23T19:28:54.890Z,21.05
2023-12-23T19:30:58.604Z,17.80
2023-12-23T19:33:01.671Z,19.75
2023-12-23T19:35:04.836Z,15.05
2023-12-23T19:37:07.734Z,15.82
2023-12-23T19:39:11.132Z,19.80
2023-12-23T19:41:14.659Z,15.23
2023-12-23T19:43:19.923Z,21.92
2023-12-23T19:45:23.876Z,15.80
2023-12-23T19:47:27.239Z,21.40
2023-12-23T19:49:30.274Z,20.30
2023-12-23T19:51:34.941Z,17.85
2023-12-23T19:53:37.837Z,13.48
2023-12-23T19:55:40.845Z,20.05
2023-12-23T19:57:43.611Z,15.50
2023-12-23T19:59:46.363Z,18.60
2023-12-23T20:01:49.225Z,19.63
2023-12-23T20:03:54.476Z,18.85
2023-12-23T20:05:57.335Z,14.10
2023-12-23T20:08:00.209Z,17.77
2023-12-23T20:10:03.869Z,16.48
2023-12-23T20:12:10.609Z,21.38
2023-12-23T20:14:13.627Z,18.05
2023-12-23T20:16:29.216Z,18.60
2023-12-23T20:18:33.130Z,22.58
2023-12-23T20:20:36.084Z,21.67
2023-12-23T20:22:40.079Z,17.42
2023-12-23T20:24:42.788Z,20.20
2023-12-23T20:26:45.695Z,15.05
2023-12-23T20:28:48.696Z,12.32
2023-12-23T20:30:51.491Z,22.33
2023-12-23T20:32:54.593Z,18.00
2023-12-23T20:34:57.531Z,17.33
2023-12-23T20:37:02.608Z,20.70
2023-12-23T20:39:06.276Z,20.40
2023-12-23T20:41:10.850Z,28.75
2023-12-23T20:43:13.965Z,46.67
2023-12-23T20:45:16.920Z,71.05
2023-12-23T20:47:19.898Z,44.13
2023-12-23T20:49:23.032Z,34.72
2023-12-23T20:51:25.940Z,31.70
2023-12-23T20:53:29.361Z,61.80
2023-12-23T20:55:32.552Z,46.63
2023-12-23T20:57:35.451Z,40.85
2023-12-23T20:59:38.793Z,26.83
2023-12-23T21:01:41.758Z,27.55
2023-12-23T21:03:44.710Z,21.90
2023-12-23T21:05:47.826Z,15.50
2023-12-23T21:07:51.484Z,18.20
2023-12-23T21:09:56.479Z,11.63
2023-12-23T21:11:59.338Z,17.67
2023-12-23T21:14:02.300Z,20.08
2023-12-23T21:16:05.473Z,18.20
2023-12-23T21:18:08.404Z,22.90
2023-12-23T21:20:11.537Z,16.20
2023-12-23T21:22:14.555Z,16.05
2023-12-23T21:24:17.329Z,15.35
2023-12-23T21:26:24.367Z,16.88
2023-12-23T21:28:27.569Z,13.68
2023-12-23T21:30:31.891Z,17.95
2023-12-23T21:32:35.146Z,14.20
2023-12-23T21:34:38.155Z,16.48
2023-12-23T21:36:41.102Z,15.25
2023-12-23T21:38:43.889Z,15.27
2023-12-23T21:40:47.521Z,14.90
2023-12-23T21:42:50.936Z,12.10
2023-12-23T21:44:53.950Z,15.68
2023-12-23T21:46:56.923Z,16.40
2023-12-23T21:49:00.630Z,16.00
2023-12-23T21:51:04.302Z,14.32
2023-12-23T21:53:07.244Z,16.25
2023-12-23T21:55:10.272Z,16.30
2023-12-23T21:57:13.111Z,17.02
2023-12-23T21:59:16.058Z,12.85
2023-12-23T22:01:19.115Z,15.35
2023-12-23T22:03:21.906Z,14.35
2023-12-23T22:05:24.965Z,13.90
2023-12-23T22:07:28.029Z,12.95
2023-12-23T22:09:31.341Z,18.13
2023-12-23T22:11:34.395Z,13.52
2023-12-23T22:13:37.362Z,16.02
2023-12-23T22:15:40.198Z,20.92
2023-12-23T22:17:43.483Z,16.27
2023-12-23T22:19:47.769Z,12.25
2023-12-23T22:21:51.628Z,15.73
2023-12-23T22:23:54.557Z,15.70
2023-12-23T22:25:57.453Z,14.25
2023-12-23T22:28:00.316Z,14.48
2023-12-23T22:30:03.189Z,14.85
2023-12-23T22:32:08.322Z,11.65
2023-12-23T22:34:11.795Z,11.90
2023-12-23T22:36:14.583Z,15.25
2023-12-23T22:38:17.354Z,14.93
2023-12-23T22:40:21.000Z,13.57
2023-12-23T22:42:24.017Z,13.30
2023-12-23T22:44:26.887Z,15.13
2023-12-23T22:46:29.763Z,15.07
2023-12-23T22:48:32.622Z,17.77
2023-12-23T22:50:35.530Z,15.38
2023-12-23T22:52:38.353Z,12.82
2023-12-23T22:54:41.134Z,14.30
2023-12-23T22:56:44.024Z,16.40
2023-12-23T22:58:47.345Z,9.98
2023-12-23T23:00:50.152Z,10.90
2023-12-23T23:02:53.408Z,11.07
2023-12-23T23:04:56.702Z,12.95
2023-12-23T23:06:59.608Z,12.45
2023-12-23T23:09:02.329Z,16.17
2023-12-23T23:11:05.468Z,11.27
2023-12-23T23:13:08.454Z,8.88
2023-12-23T23:15:11.316Z,19.30
2023-12-23T23:17:14.478Z,12.15
2023-12-23T23:19:17.492Z,27.27
2023-12-23T23:21:21.477Z,10.40
2023-12-23T23:23:25.309Z,11.80
2023-12-23T23:25:28.154Z,18.15
2023-12-23T23:27:30.909Z,8.93
2023-12-23T23:29:33.930Z,14.63
2023-12-23T23:31:36.796Z,11.07
2023-12-23T23:33:39.729Z,12.20
2023-12-23T23:35:42.713Z,11.65
2023-12-23T23:37:45.613Z,12.00
2023-12-23T23:39:48.344Z,9.48
2023-12-23T23:41:51.113Z,9.70
2023-12-23T23:43:53.917Z,13.15
2023-12-23T23:45:56.899Z,11.93
2023-12-23T23:47:59.658Z,12.32
2023-12-23T23:50:06.018Z,12.65
2023-12-23T23:52:10.991Z,11.00
2023-12-23T23:54:13.769Z,10.38
2023-12-23T23:56:20.326Z,13.30
2023-12-23T23:58:24.131Z,17.02
